sensor_id;sensor_type;location;lat;lon;timestamp;temperature;humidity
42199;DHT22;27868;45.184;5.786;2022-09-12T00:01:06;20.80;66.10
42199;DHT22;27868;45.184;5.786;2022-09-12T00:03:57;20.80;66.00
42199;DHT22;27868;45.184;5.786;2022-09-12T00:06:42;20.80;66.10
42199;DHT22;27868;45.184;5.786;2022-09-12T00:09:26;20.80;66.20
42199;DHT22;27868;45.184;5.786;2022-09-12T00:12:11;20.70;66.20
42199;DHT22;27868;45.184;5.786;2022-09-12T00:14:55;20.70;66.30
42199;DHT22;27868;45.184;5.786;2022-09-12T00:17:40;20.70;66.40
42199;DHT22;27868;45.184;5.786;2022-09-12T00:20:24;20.70;66.60
42199;DHT22;27868;45.184;5.786;2022-09-12T00:23:09;20.70;66.70
42199;DHT22;27868;45.184;5.786;2022-09-12T00:25:53;20.60;66.70
42199;DHT22;27868;45.184;5.786;2022-09-12T00:28:39;20.60;66.80
42199;DHT22;27868;45.184;5.786;2022-09-12T00:31:25;20.60;66.90
42199;DHT22;27868;45.184;5.786;2022-09-12T00:34:10;20.60;66.80
42199;DHT22;27868;45.184;5.786;2022-09-12T00:36:54;20.50;66.80
42199;DHT22;27868;45.184;5.786;2022-09-12T00:39:39;20.50;66.80
42199;DHT22;27868;45.184;5.786;2022-09-12T00:42:24;20.50;66.80
42199;DHT22;27868;45.184;5.786;2022-09-12T00:45:19;20.50;67.60
42199;DHT22;27868;45.184;5.786;2022-09-12T00:48:17;20.40;67.00
42199;DHT22;27868;45.184;5.786;2022-09-12T00:51:05;20.40;67.10
42199;DHT22;27868;45.184;5.786;2022-09-12T00:53:52;20.40;67.10
42199;DHT22;27868;45.184;5.786;2022-09-12T00:56:40;20.40;67.30
42199;DHT22;27868;45.184;5.786;2022-09-12T00:59:31;20.30;67.30
42199;DHT22;27868;45.184;5.786;2022-09-12T01:02:17;20.30;67.30
42199;DHT22;27868;45.184;5.786;2022-09-12T01:05:02;20.30;67.30
42199;DHT22;27868;45.184;5.786;2022-09-12T01:07:47;20.20;67.50
42199;DHT22;27868;45.184;5.786;2022-09-12T01:10:35;20.30;68.30
42199;DHT22;27868;45.184;5.786;2022-09-12T01:13:21;20.20;67.80
42199;DHT22;27868;45.184;5.786;2022-09-12T01:16:07;20.20;67.90
42199;DHT22;27868;45.184;5.786;2022-09-12T01:19:21;20.20;67.80
42199;DHT22;27868;45.184;5.786;2022-09-12T01:31:41;20.10;68.70
42199;DHT22;27868;45.184;5.786;2022-09-12T01:34:34;20.00;69.50
42199;DHT22;27868;45.184;5.786;2022-09-12T01:37:35;20.00;68.80
42199;DHT22;27868;45.184;5.786;2022-09-12T01:40:41;20.00;68.80
42199;DHT22;27868;45.184;5.786;2022-09-12T01:43:47;19.90;69.00
42199;DHT22;27868;45.184;5.786;2022-09-12T01:52:37;19.80;69.10
42199;DHT22;27868;45.184;5.786;2022-09-12T01:58:21;19.70;69.50
42199;DHT22;27868;45.184;5.786;2022-09-12T02:01:16;19.70;69.50
42199;DHT22;27868;45.184;5.786;2022-09-12T02:04:21;19.70;70.10
42199;DHT22;27868;45.184;5.786;2022-09-12T02:07:15;19.70;69.60
42199;DHT22;27868;45.184;5.786;2022-09-12T02:10:09;19.60;69.90
42199;DHT22;27868;45.184;5.786;2022-09-12T02:13:02;19.60;70.30
42199;DHT22;27868;45.184;5.786;2022-09-12T02:15:53;19.60;70.40
42199;DHT22;27868;45.184;5.786;2022-09-12T02:18:44;19.60;70.60
42199;DHT22;27868;45.184;5.786;2022-09-12T02:21:30;19.60;70.50
42199;DHT22;27868;45.184;5.786;2022-09-12T02:24:16;19.50;69.60
42199;DHT22;27868;45.184;5.786;2022-09-12T02:27:29;19.50;70.20
42199;DHT22;27868;45.184;5.786;2022-09-12T02:30:17;19.50;69.90
42199;DHT22;27868;45.184;5.786;2022-09-12T02:33:26;19.50;70.00
42199;DHT22;27868;45.184;5.786;2022-09-12T02:39:07;19.50;69.90
42199;DHT22;27868;45.184;5.786;2022-09-12T02:41:58;19.50;69.90
42199;DHT22;27868;45.184;5.786;2022-09-12T02:44:44;19.50;70.00
42199;DHT22;27868;45.184;5.786;2022-09-12T02:47:37;19.40;70.00
42199;DHT22;27868;45.184;5.786;2022-09-12T02:50:22;19.50;70.20
42199;DHT22;27868;45.184;5.786;2022-09-12T02:53:08;19.40;70.10
42199;DHT22;27868;45.184;5.786;2022-09-12T02:55:53;19.40;70.10
42199;DHT22;27868;45.184;5.786;2022-09-12T02:58:38;19.50;70.20
42199;DHT22;27868;45.184;5.786;2022-09-12T03:01:47;19.40;70.20
42199;DHT22;27868;45.184;5.786;2022-09-12T03:07:51;19.40;70.30
42199;DHT22;27868;45.184;5.786;2022-09-12T03:11:08;19.40;70.60
42199;DHT22;27868;45.184;5.786;2022-09-12T03:17:12;19.30;70.90
42199;DHT22;27868;45.184;5.786;2022-09-12T03:26:18;19.30;71.40
42199;DHT22;27868;45.184;5.786;2022-09-12T03:29:06;19.30;71.60
42199;DHT22;27868;45.184;5.786;2022-09-12T03:31:56;19.30;71.60
42199;DHT22;27868;45.184;5.786;2022-09-12T03:34:41;19.30;71.60
42199;DHT22;27868;45.184;5.786;2022-09-12T03:37:26;19.20;71.60
42199;DHT22;27868;45.184;5.786;2022-09-12T03:40:11;19.20;71.60
42199;DHT22;27868;45.184;5.786;2022-09-12T03:42:55;19.20;71.40
42199;DHT22;27868;45.184;5.786;2022-09-12T03:45:40;19.20;71.20
42199;DHT22;27868;45.184;5.786;2022-09-12T03:48:25;19.20;71.20
42199;DHT22;27868;45.184;5.786;2022-09-12T03:51:10;19.20;71.00
42199;DHT22;27868;45.184;5.786;2022-09-12T03:53:54;19.10;70.90
42199;DHT22;27868;45.184;5.786;2022-09-12T03:56:39;19.10;70.80
42199;DHT22;27868;45.184;5.786;2022-09-12T03:59:25;19.10;70.80
42199;DHT22;27868;45.184;5.786;2022-09-12T04:02:09;19.10;70.80
42199;DHT22;27868;45.184;5.786;2022-09-12T04:04:56;19.10;70.80
42199;DHT22;27868;45.184;5.786;2022-09-12T04:07:41;19.00;70.70
42199;DHT22;27868;45.184;5.786;2022-09-12T04:10:25;19.00;70.60
42199;DHT22;27868;45.184;5.786;2022-09-12T04:13:10;19.00;70.80
42199;DHT22;27868;45.184;5.786;2022-09-12T04:15:56;19.00;70.80
42199;DHT22;27868;45.184;5.786;2022-09-12T04:18:41;19.00;70.90
42199;DHT22;27868;45.184;5.786;2022-09-12T04:21:26;19.00;70.80
42199;DHT22;27868;45.184;5.786;2022-09-12T04:24:11;19.00;70.80
42199;DHT22;27868;45.184;5.786;2022-09-12T04:26:55;19.00;70.80
42199;DHT22;27868;45.184;5.786;2022-09-12T04:29:40;18.90;70.60
42199;DHT22;27868;45.184;5.786;2022-09-12T04:32:25;18.90;70.70
42199;DHT22;27868;45.184;5.786;2022-09-12T04:35:09;18.90;70.70
42199;DHT22;27868;45.184;5.786;2022-09-12T04:37:55;18.90;70.60
42199;DHT22;27868;45.184;5.786;2022-09-12T04:40:40;18.90;70.80
42199;DHT22;27868;45.184;5.786;2022-09-12T04:43:25;18.80;70.90
42199;DHT22;27868;45.184;5.786;2022-09-12T04:46:11;18.80;71.70
42199;DHT22;27868;45.184;5.786;2022-09-12T04:48:56;18.80;71.10
42199;DHT22;27868;45.184;5.786;2022-09-12T04:51:41;18.80;71.10
42199;DHT22;27868;45.184;5.786;2022-09-12T04:54:26;18.70;71.00
42199;DHT22;27868;45.184;5.786;2022-09-12T04:57:11;18.70;70.80
42199;DHT22;27868;45.184;5.786;2022-09-12T04:59:56;18.70;70.90
42199;DHT22;27868;45.184;5.786;2022-09-12T05:02:42;18.70;71.80
42199;DHT22;27868;45.184;5.786;2022-09-12T05:05:27;18.70;71.40
42199;DHT22;27868;45.184;5.786;2022-09-12T05:08:11;18.60;71.60
42199;DHT22;27868;45.184;5.786;2022-09-12T05:10:56;18.60;71.70
42199;DHT22;27868;45.184;5.786;2022-09-12T05:13:45;18.60;72.40
42199;DHT22;27868;45.184;5.786;2022-09-12T05:16:30;18.60;71.70
42199;DHT22;27868;45.184;5.786;2022-09-12T05:19:16;18.60;71.50
42199;DHT22;27868;45.184;5.786;2022-09-12T05:22:01;18.60;71.60
42199;DHT22;27868;45.184;5.786;2022-09-12T05:24:46;18.60;71.70
42199;DHT22;27868;45.184;5.786;2022-09-12T05:27:32;18.60;71.70
42199;DHT22;27868;45.184;5.786;2022-09-12T05:30:16;18.60;71.60
42199;DHT22;27868;45.184;5.786;2022-09-12T05:33:01;18.50;71.40
42199;DHT22;27868;45.184;5.786;2022-09-12T05:35:50;18.50;71.40
42199;DHT22;27868;45.184;5.786;2022-09-12T05:38:36;18.50;71.40
42199;DHT22;27868;45.184;5.786;2022-09-12T05:41:27;18.50;71.30
42199;DHT22;27868;45.184;5.786;2022-09-12T05:44:13;18.50;71.40
42199;DHT22;27868;45.184;5.786;2022-09-12T05:46:58;18.40;71.60
42199;DHT22;27868;45.184;5.786;2022-09-12T05:49:42;18.50;71.70
42199;DHT22;27868;45.184;5.786;2022-09-12T05:52:28;18.50;71.70
42199;DHT22;27868;45.184;5.786;2022-09-12T05:55:13;18.40;71.70
42199;DHT22;27868;45.184;5.786;2022-09-12T05:57:57;18.40;71.80
42199;DHT22;27868;45.184;5.786;2022-09-12T06:00:42;18.40;72.10
42199;DHT22;27868;45.184;5.786;2022-09-12T06:03:26;18.40;72.30
42199;DHT22;27868;45.184;5.786;2022-09-12T06:06:12;18.40;72.40
42199;DHT22;27868;45.184;5.786;2022-09-12T06:08:58;18.40;72.50
42199;DHT22;27868;45.184;5.786;2022-09-12T06:11:44;18.40;73.30
42199;DHT22;27868;45.184;5.786;2022-09-12T06:14:29;18.40;72.90
42199;DHT22;27868;45.184;5.786;2022-09-12T06:17:13;18.40;73.10
42199;DHT22;27868;45.184;5.786;2022-09-12T06:19:58;18.40;73.20
42199;DHT22;27868;45.184;5.786;2022-09-12T06:22:43;18.40;73.40
42199;DHT22;27868;45.184;5.786;2022-09-12T06:25:28;18.40;73.40
42199;DHT22;27868;45.184;5.786;2022-09-12T06:28:13;18.40;73.50
42199;DHT22;27868;45.184;5.786;2022-09-12T06:31:05;18.40;73.70
42199;DHT22;27868;45.184;5.786;2022-09-12T06:33:52;18.40;73.80
42199;DHT22;27868;45.184;5.786;2022-09-12T06:36:39;18.40;73.70
42199;DHT22;27868;45.184;5.786;2022-09-12T06:39:24;18.40;73.90
42199;DHT22;27868;45.184;5.786;2022-09-12T06:42:09;18.40;74.20
42199;DHT22;27868;45.184;5.786;2022-09-12T06:44:56;18.50;74.20
42199;DHT22;27868;45.184;5.786;2022-09-12T06:47:40;18.50;74.40
42199;DHT22;27868;45.184;5.786;2022-09-12T06:50:25;18.60;74.60
42199;DHT22;27868;45.184;5.786;2022-09-12T06:53:10;18.60;74.60
42199;DHT22;27868;45.184;5.786;2022-09-12T06:55:56;18.60;75.30
42199;DHT22;27868;45.184;5.786;2022-09-12T06:58:42;18.60;74.80
42199;DHT22;27868;45.184;5.786;2022-09-12T07:01:28;18.70;74.70
42199;DHT22;27868;45.184;5.786;2022-09-12T07:04:14;18.70;74.80
42199;DHT22;27868;45.184;5.786;2022-09-12T07:06:59;18.70;74.50
42199;DHT22;27868;45.184;5.786;2022-09-12T07:09:44;18.80;74.20
42199;DHT22;27868;45.184;5.786;2022-09-12T07:12:28;18.80;74.20
42199;DHT22;27868;45.184;5.786;2022-09-12T07:15:14;18.80;74.10
42199;DHT22;27868;45.184;5.786;2022-09-12T07:17:59;18.80;74.00
42199;DHT22;27868;45.184;5.786;2022-09-12T07:20:44;18.80;73.80
42199;DHT22;27868;45.184;5.786;2022-09-12T07:23:29;18.90;73.90
42199;DHT22;27868;45.184;5.786;2022-09-12T07:26:14;18.90;73.80
42199;DHT22;27868;45.184;5.786;2022-09-12T07:28:59;18.90;73.70
42199;DHT22;27868;45.184;5.786;2022-09-12T07:31:44;18.90;73.30
42199;DHT22;27868;45.184;5.786;2022-09-12T07:34:29;18.90;73.80
42199;DHT22;27868;45.184;5.786;2022-09-12T07:37:14;18.90;73.10
42199;DHT22;27868;45.184;5.786;2022-09-12T07:39:59;18.90;73.20
42199;DHT22;27868;45.184;5.786;2022-09-12T07:42:43;18.90;73.40
42199;DHT22;27868;45.184;5.786;2022-09-12T07:45:28;19.00;73.60
42199;DHT22;27868;45.184;5.786;2022-09-12T07:48:13;19.00;73.60
42199;DHT22;27868;45.184;5.786;2022-09-12T07:51:02;19.00;73.60
42199;DHT22;27868;45.184;5.786;2022-09-12T07:53:48;19.00;74.10
42199;DHT22;27868;45.184;5.786;2022-09-12T07:56:33;19.00;73.40
42199;DHT22;27868;45.184;5.786;2022-09-12T07:59:17;19.00;73.50
42199;DHT22;27868;45.184;5.786;2022-09-12T08:02:02;19.10;73.60
42199;DHT22;27868;45.184;5.786;2022-09-12T08:04:47;19.10;73.40
42199;DHT22;27868;45.184;5.786;2022-09-12T08:07:32;19.10;73.00
42199;DHT22;27868;45.184;5.786;2022-09-12T08:10:17;19.10;72.80
42199;DHT22;27868;45.184;5.786;2022-09-12T08:13:03;19.10;72.90
42199;DHT22;27868;45.184;5.786;2022-09-12T08:15:47;19.20;72.90
42199;DHT22;27868;45.184;5.786;2022-09-12T08:18:33;19.20;72.20
42199;DHT22;27868;45.184;5.786;2022-09-12T08:21:21;19.20;71.80
42199;DHT22;27868;45.184;5.786;2022-09-12T08:24:06;19.20;71.40
42199;DHT22;27868;45.184;5.786;2022-09-12T08:26:50;19.10;70.40
42199;DHT22;27868;45.184;5.786;2022-09-12T08:29:35;19.20;70.70
42199;DHT22;27868;45.184;5.786;2022-09-12T08:32:19;19.20;71.00
42199;DHT22;27868;45.184;5.786;2022-09-12T08:35:04;19.20;71.20
42199;DHT22;27868;45.184;5.786;2022-09-12T08:37:49;19.30;70.30
42199;DHT22;27868;45.184;5.786;2022-09-12T08:40:52;19.30;70.80
42199;DHT22;27868;45.184;5.786;2022-09-12T08:55:56;19.50;69.80
42199;DHT22;27868;45.184;5.786;2022-09-12T08:58:44;19.50;70.60
42199;DHT22;27868;45.184;5.786;2022-09-12T09:01:40;19.50;70.20
42199;DHT22;27868;45.184;5.786;2022-09-12T09:04:35;19.60;69.90
42199;DHT22;27868;45.184;5.786;2022-09-12T09:07:27;19.60;69.90
42199;DHT22;27868;45.184;5.786;2022-09-12T09:16:41;19.70;69.70
42199;DHT22;27868;45.184;5.786;2022-09-12T09:19:30;19.80;70.10
42199;DHT22;27868;45.184;5.786;2022-09-12T09:22:33;19.80;69.70
42199;DHT22;27868;45.184;5.786;2022-09-12T09:25:25;19.80;70.20
42199;DHT22;27868;45.184;5.786;2022-09-12T09:28:21;19.90;69.90
42199;DHT22;27868;45.184;5.786;2022-09-12T09:31:19;19.90;69.80
42199;DHT22;27868;45.184;5.786;2022-09-12T09:34:31;20.00;69.50
42199;DHT22;27868;45.184;5.786;2022-09-12T09:37:19;20.00;68.80
42199;DHT22;27868;45.184;5.786;2022-09-12T09:40:31;20.10;68.60
42199;DHT22;27868;45.184;5.786;2022-09-12T09:43:22;20.20;68.10
42199;DHT22;27868;45.184;5.786;2022-09-12T09:46:07;20.20;67.90
42199;DHT22;27868;45.184;5.786;2022-09-12T09:48:52;20.20;67.60
42199;DHT22;27868;45.184;5.786;2022-09-12T09:51:39;20.20;67.50
42199;DHT22;27868;45.184;5.786;2022-09-12T09:54:27;20.30;67.60
42199;DHT22;27868;45.184;5.786;2022-09-12T10:00:22;20.40;67.10
42199;DHT22;27868;45.184;5.786;2022-09-12T10:06:03;20.50;67.00
42199;DHT22;27868;45.184;5.786;2022-09-12T10:08:50;20.50;67.20
42199;DHT22;27868;45.184;5.786;2022-09-12T10:11:35;20.50;66.70
42199;DHT22;27868;45.184;5.786;2022-09-12T10:14:35;20.60;67.10
42199;DHT22;27868;45.184;5.786;2022-09-12T10:17:25;20.70;66.70
42199;DHT22;27868;45.184;5.786;2022-09-12T10:20:38;20.70;66.70
42199;DHT22;27868;45.184;5.786;2022-09-12T10:23:33;20.80;66.30
42199;DHT22;27868;45.184;5.786;2022-09-12T10:26:21;20.80;66.80
42199;DHT22;27868;45.184;5.786;2022-09-12T10:29:26;20.90;66.20
42199;DHT22;27868;45.184;5.786;2022-09-12T10:32:18;21.00;65.80
42199;DHT22;27868;45.184;5.786;2022-09-12T10:35:07;21.00;65.40
42199;DHT22;27868;45.184;5.786;2022-09-12T10:38:03;21.10;65.10
42199;DHT22;27868;45.184;5.786;2022-09-12T10:41:01;21.10;65.40
42199;DHT22;27868;45.184;5.786;2022-09-12T10:43:47;21.20;64.50
42199;DHT22;27868;45.184;5.786;2022-09-12T10:46:33;21.20;64.60
42199;DHT22;27868;45.184;5.786;2022-09-12T10:49:35;21.20;64.50
42199;DHT22;27868;45.184;5.786;2022-09-12T10:52:25;21.30;64.00
42199;DHT22;27868;45.184;5.786;2022-09-12T10:55:14;21.40;64.40
42199;DHT22;27868;45.184;5.786;2022-09-12T10:58:28;21.50;63.80
42199;DHT22;27868;45.184;5.786;2022-09-12T11:04:29;21.60;64.00
42199;DHT22;27868;45.184;5.786;2022-09-12T11:07:41;21.70;64.30
42199;DHT22;27868;45.184;5.786;2022-09-12T11:14:19;21.90;63.90
42199;DHT22;27868;45.184;5.786;2022-09-12T11:29:24;22.60;61.30
42199;DHT22;27868;45.184;5.786;2022-09-12T11:35:06;22.90;60.60
42199;DHT22;27868;45.184;5.786;2022-09-12T11:40:58;23.20;60.60
42199;DHT22;27868;45.184;5.786;2022-09-12T11:47:04;23.60;60.70
42199;DHT22;27868;45.184;5.786;2022-09-12T11:49:48;23.70;60.00
42199;DHT22;27868;45.184;5.786;2022-09-12T11:52:36;23.90;59.90
42199;DHT22;27868;45.184;5.786;2022-09-12T11:55:25;24.10;59.80
42199;DHT22;27868;45.184;5.786;2022-09-12T11:58:11;24.20;59.20
42199;DHT22;27868;45.184;5.786;2022-09-12T12:01:08;24.40;58.70
42199;DHT22;27868;45.184;5.786;2022-09-12T12:03:54;24.50;58.30
42199;DHT22;27868;45.184;5.786;2022-09-12T12:06:52;24.70;58.40
42199;DHT22;27868;45.184;5.786;2022-09-12T12:09:49;24.80;58.20
42199;DHT22;27868;45.184;5.786;2022-09-12T12:12:34;25.00;57.50
42199;DHT22;27868;45.184;5.786;2022-09-12T12:15:20;25.20;57.10
42199;DHT22;27868;45.184;5.786;2022-09-12T12:18:18;25.30;56.50
42199;DHT22;27868;45.184;5.786;2022-09-12T12:21:44;25.40;55.40
42199;DHT22;27868;45.184;5.786;2022-09-12T12:24:27;25.60;55.70
42199;DHT22;27868;45.184;5.786;2022-09-12T12:27:24;25.70;55.60
42199;DHT22;27868;45.184;5.786;2022-09-12T12:38:45;26.20;54.30
42199;DHT22;27868;45.184;5.786;2022-09-12T12:47:33;26.60;55.30
42199;DHT22;27868;45.184;5.786;2022-09-12T12:50:25;26.70;54.70
42199;DHT22;27868;45.184;5.786;2022-09-12T12:53:23;26.80;55.30
42199;DHT22;27868;45.184;5.786;2022-09-12T12:56:38;27.00;54.50
42199;DHT22;27868;45.184;5.786;2022-09-12T12:59:23;27.20;54.90
42199;DHT22;27868;45.184;5.786;2022-09-12T13:02:19;27.30;54.50
42199;DHT22;27868;45.184;5.786;2022-09-12T13:05:15;27.40;52.70
42199;DHT22;27868;45.184;5.786;2022-09-12T13:11:10;27.70;51.60
42199;DHT22;27868;45.184;5.786;2022-09-12T13:14:00;27.80;51.70
42199;DHT22;27868;45.184;5.786;2022-09-12T13:16:54;27.80;51.30
42199;DHT22;27868;45.184;5.786;2022-09-12T13:19:40;27.90;50.80
42199;DHT22;27868;45.184;5.786;2022-09-12T13:22:24;28.00;51.10
42199;DHT22;27868;45.184;5.786;2022-09-12T13:31:21;28.30;49.70
42199;DHT22;27868;45.184;5.786;2022-09-12T13:34:09;28.40;50.80
42199;DHT22;27868;45.184;5.786;2022-09-12T13:43:15;28.70;50.20
42199;DHT22;27868;45.184;5.786;2022-09-12T13:46:00;28.80;49.80
42199;DHT22;27868;45.184;5.786;2022-09-12T13:48:45;28.90;50.00
42199;DHT22;27868;45.184;5.786;2022-09-12T13:51:30;28.90;50.40
42199;DHT22;27868;45.184;5.786;2022-09-12T13:54:17;29.00;49.90
42199;DHT22;27868;45.184;5.786;2022-09-12T13:57:03;29.10;49.30
42199;DHT22;27868;45.184;5.786;2022-09-12T13:59:48;29.20;50.10
42199;DHT22;27868;45.184;5.786;2022-09-12T14:02:35;29.20;48.80
42199;DHT22;27868;45.184;5.786;2022-09-12T14:05:23;29.20;49.20
42199;DHT22;27868;45.184;5.786;2022-09-12T14:08:08;29.20;48.80
42199;DHT22;27868;45.184;5.786;2022-09-12T14:10:54;29.20;49.20
42199;DHT22;27868;45.184;5.786;2022-09-12T14:13:39;29.30;48.80
42199;DHT22;27868;45.184;5.786;2022-09-12T14:16:24;29.30;48.00
42199;DHT22;27868;45.184;5.786;2022-09-12T14:19:12;29.30;47.90
42199;DHT22;27868;45.184;5.786;2022-09-12T14:21:59;29.30;48.50
42199;DHT22;27868;45.184;5.786;2022-09-12T14:24:47;29.40;48.10
42199;DHT22;27868;45.184;5.786;2022-09-12T14:27:39;29.40;48.90
42199;DHT22;27868;45.184;5.786;2022-09-12T14:30:28;29.40;48.40
42199;DHT22;27868;45.184;5.786;2022-09-12T14:33:18;29.40;48.10
42199;DHT22;27868;45.184;5.786;2022-09-12T14:36:10;29.40;49.00
42199;DHT22;27868;45.184;5.786;2022-09-12T14:38:59;29.40;48.40
42199;DHT22;27868;45.184;5.786;2022-09-12T14:41:45;29.40;48.30
42199;DHT22;27868;45.184;5.786;2022-09-12T14:44:31;29.40;49.40
42199;DHT22;27868;45.184;5.786;2022-09-12T14:47:22;29.40;49.20
42199;DHT22;27868;45.184;5.786;2022-09-12T14:50:21;29.40;49.00
42199;DHT22;27868;45.184;5.786;2022-09-12T14:56:11;29.50;49.20
42199;DHT22;27868;45.184;5.786;2022-09-12T15:02:23;29.50;48.90
42199;DHT22;27868;45.184;5.786;2022-09-12T15:08:00;29.30;49.10
42199;DHT22;27868;45.184;5.786;2022-09-12T15:10:44;29.30;48.70
42199;DHT22;27868;45.184;5.786;2022-09-12T15:13:38;29.30;49.60
42199;DHT22;27868;45.184;5.786;2022-09-12T15:16:23;29.30;48.90
42199;DHT22;27868;45.184;5.786;2022-09-12T15:19:07;29.30;49.30
42199;DHT22;27868;45.184;5.786;2022-09-12T15:21:52;29.30;49.20
42199;DHT22;27868;45.184;5.786;2022-09-12T15:24:37;29.20;49.00
42199;DHT22;27868;45.184;5.786;2022-09-12T15:27:23;29.20;49.80
42199;DHT22;27868;45.184;5.786;2022-09-12T15:30:11;29.20;49.90
42199;DHT22;27868;45.184;5.786;2022-09-12T15:32:56;29.20;50.30
42199;DHT22;27868;45.184;5.786;2022-09-12T15:35:43;29.10;50.00
42199;DHT22;27868;45.184;5.786;2022-09-12T15:38:28;29.10;50.60
42199;DHT22;27868;45.184;5.786;2022-09-12T15:41:16;29.10;50.60
42199;DHT22;27868;45.184;5.786;2022-09-12T15:44:06;29.00;50.60
42199;DHT22;27868;45.184;5.786;2022-09-12T15:46:54;29.00;50.70
42199;DHT22;27868;45.184;5.786;2022-09-12T15:49:39;29.00;50.90
42199;DHT22;27868;45.184;5.786;2022-09-12T15:52:24;28.90;51.20
42199;DHT22;27868;45.184;5.786;2022-09-12T15:55:35;28.90;50.90
42199;DHT22;27868;45.184;5.786;2022-09-12T15:58:20;28.90;51.40
42199;DHT22;27868;45.184;5.786;2022-09-12T16:01:05;28.80;51.30
42199;DHT22;27868;45.184;5.786;2022-09-12T16:03:50;28.80;51.40
42199;DHT22;27868;45.184;5.786;2022-09-12T16:06:34;28.80;51.40
42199;DHT22;27868;45.184;5.786;2022-09-12T16:09:20;28.80;51.70
42199;DHT22;27868;45.184;5.786;2022-09-12T16:12:05;28.70;52.10
42199;DHT22;27868;45.184;5.786;2022-09-12T16:14:49;28.70;51.80
42199;DHT22;27868;45.184;5.786;2022-09-12T16:17:34;28.70;51.90
42199;DHT22;27868;45.184;5.786;2022-09-12T16:20:19;28.60;52.00
42199;DHT22;27868;45.184;5.786;2022-09-12T16:23:03;28.60;51.90
42199;DHT22;27868;45.184;5.786;2022-09-12T16:26:02;28.60;52.20
42199;DHT22;27868;45.184;5.786;2022-09-12T16:28:56;28.60;52.50
42199;DHT22;27868;45.184;5.786;2022-09-12T16:31:41;28.50;52.40
42199;DHT22;27868;45.184;5.786;2022-09-12T16:34:26;28.50;52.60
42199;DHT22;27868;45.184;5.786;2022-09-12T16:37:10;28.40;52.70
42199;DHT22;27868;45.184;5.786;2022-09-12T16:39:55;28.40;52.90
42199;DHT22;27868;45.184;5.786;2022-09-12T16:42:40;28.30;53.10
42199;DHT22;27868;45.184;5.786;2022-09-12T16:45:24;28.30;53.20
42199;DHT22;27868;45.184;5.786;2022-09-12T16:48:09;28.20;53.40
42199;DHT22;27868;45.184;5.786;2022-09-12T16:50:58;28.10;53.50
42199;DHT22;27868;45.184;5.786;2022-09-12T16:53:45;28.10;53.70
42199;DHT22;27868;45.184;5.786;2022-09-12T16:56:30;28.00;53.90
42199;DHT22;27868;45.184;5.786;2022-09-12T16:59:14;28.00;54.10
42199;DHT22;27868;45.184;5.786;2022-09-12T17:02:00;28.00;54.30
42199;DHT22;27868;45.184;5.786;2022-09-12T17:04:45;27.90;54.20
42199;DHT22;27868;45.184;5.786;2022-09-12T17:07:29;27.80;54.60
42199;DHT22;27868;45.184;5.786;2022-09-12T17:10:14;27.80;54.70
42199;DHT22;27868;45.184;5.786;2022-09-12T17:12:58;27.70;54.80
42199;DHT22;27868;45.184;5.786;2022-09-12T17:15:43;27.70;55.00
42199;DHT22;27868;45.184;5.786;2022-09-12T17:18:29;27.60;55.20
42199;DHT22;27868;45.184;5.786;2022-09-12T17:21:14;27.60;55.20
42199;DHT22;27868;45.184;5.786;2022-09-12T17:23:58;27.50;56.00
42199;DHT22;27868;45.184;5.786;2022-09-12T17:26:44;27.40;55.50
42199;DHT22;27868;45.184;5.786;2022-09-12T17:29:29;27.40;55.60
42199;DHT22;27868;45.184;5.786;2022-09-12T17:32:14;27.30;55.70
42199;DHT22;27868;45.184;5.786;2022-09-12T17:34:59;27.30;56.00
42199;DHT22;27868;45.184;5.786;2022-09-12T17:37:43;27.30;56.20
42199;DHT22;27868;45.184;5.786;2022-09-12T17:40:29;27.20;56.50
42199;DHT22;27868;45.184;5.786;2022-09-12T17:43:14;27.20;56.50
42199;DHT22;27868;45.184;5.786;2022-09-12T17:45:59;27.10;56.60
42199;DHT22;27868;45.184;5.786;2022-09-12T17:48:44;27.10;56.90
42199;DHT22;27868;45.184;5.786;2022-09-12T17:51:29;27.00;57.20
42199;DHT22;27868;45.184;5.786;2022-09-12T17:54:16;27.00;57.40
42199;DHT22;27868;45.184;5.786;2022-09-12T17:57:02;27.00;57.10
42199;DHT22;27868;45.184;5.786;2022-09-12T17:59:48;26.90;57.20
42199;DHT22;27868;45.184;5.786;2022-09-12T18:02:33;26.80;57.20
42199;DHT22;27868;45.184;5.786;2022-09-12T18:05:18;26.80;57.20
42199;DHT22;27868;45.184;5.786;2022-09-12T18:08:02;26.80;57.10
42199;DHT22;27868;45.184;5.786;2022-09-12T18:10:47;26.70;57.20
42199;DHT22;27868;45.184;5.786;2022-09-12T18:13:32;26.60;57.00
42199;DHT22;27868;45.184;5.786;2022-09-12T18:16:17;26.60;57.10
42199;DHT22;27868;45.184;5.786;2022-09-12T18:19:02;26.60;56.90
42199;DHT22;27868;45.184;5.786;2022-09-12T18:21:46;26.50;56.90
42199;DHT22;27868;45.184;5.786;2022-09-12T18:24:31;26.50;57.30
42199;DHT22;27868;45.184;5.786;2022-09-12T18:27:16;26.50;57.20
42199;DHT22;27868;45.184;5.786;2022-09-12T18:30:00;26.40;57.20
42199;DHT22;27868;45.184;5.786;2022-09-12T18:32:46;26.40;57.30
42199;DHT22;27868;45.184;5.786;2022-09-12T18:35:30;26.40;57.60
42199;DHT22;27868;45.184;5.786;2022-09-12T18:38:15;26.30;58.00
42199;DHT22;27868;45.184;5.786;2022-09-12T18:41:01;26.30;58.30
42199;DHT22;27868;45.184;5.786;2022-09-12T18:43:47;26.20;58.20
42199;DHT22;27868;45.184;5.786;2022-09-12T18:46:34;26.20;58.20
42199;DHT22;27868;45.184;5.786;2022-09-12T18:49:18;26.20;58.40
42199;DHT22;27868;45.184;5.786;2022-09-12T18:52:03;26.10;58.40
42199;DHT22;27868;45.184;5.786;2022-09-12T18:54:48;26.10;58.50
42199;DHT22;27868;45.184;5.786;2022-09-12T18:57:33;26.00;58.70
42199;DHT22;27868;45.184;5.786;2022-09-12T19:00:18;26.00;58.80
42199;DHT22;27868;45.184;5.786;2022-09-12T19:03:03;25.90;58.70
42199;DHT22;27868;45.184;5.786;2022-09-12T19:05:47;25.90;59.10
42199;DHT22;27868;45.184;5.786;2022-09-12T19:08:33;25.80;59.10
42199;DHT22;27868;45.184;5.786;2022-09-12T19:11:19;25.80;59.00
42199;DHT22;27868;45.184;5.786;2022-09-12T19:14:05;25.80;59.30
42199;DHT22;27868;45.184;5.786;2022-09-12T19:16:50;25.70;59.00
42199;DHT22;27868;45.184;5.786;2022-09-12T19:19:35;25.70;59.10
42199;DHT22;27868;45.184;5.786;2022-09-12T19:22:19;25.60;59.10
42199;DHT22;27868;45.184;5.786;2022-09-12T19:25:05;25.60;59.10
42199;DHT22;27868;45.184;5.786;2022-09-12T19:27:50;25.60;59.20
42199;DHT22;27868;45.184;5.786;2022-09-12T19:30:35;25.50;59.20
42199;DHT22;27868;45.184;5.786;2022-09-12T19:33:19;25.50;59.10
42199;DHT22;27868;45.184;5.786;2022-09-12T19:36:07;25.50;59.20
42199;DHT22;27868;45.184;5.786;2022-09-12T19:38:52;25.40;59.40
42199;DHT22;27868;45.184;5.786;2022-09-12T19:41:36;25.40;59.30
42199;DHT22;27868;45.184;5.786;2022-09-12T19:44:21;25.40;59.30
42199;DHT22;27868;45.184;5.786;2022-09-12T19:47:10;25.30;59.40